createdAt,value
2023-01-18T00:07:22.873Z,24.33
2023-01-18T00:22:25.249Z,12.20
2023-01-18T00:37:27.702Z,10.83
2023-01-18T00:52:30.557Z,11.27
2023-01-18T01:07:33.015Z,16.27
2023-01-18T01:22:54.071Z,13.60
2023-01-18T01:37:56.364Z,12.70
2023-01-18T01:52:58.886Z,17.13
2023-01-18T02:08:03.340Z,19.60
2023-01-18T02:23:18.258Z,17.37
2023-01-18T02:38:37.850Z,13.53
2023-01-18T02:53:45.230Z,11.83
2023-01-18T03:08:49.961Z,11.77
2023-01-18T03:23:52.463Z,11.00
2023-01-18T03:39:05.816Z,12.23
2023-01-18T03:54:08.050Z,12.10
2023-01-18T04:09:11.810Z,12.87
2023-01-18T04:24:14.429Z,12.60
2023-01-18T04:39:17.172Z,13.10
2023-01-18T04:54:19.524Z,13.57
2023-01-18T05:09:22.141Z,14.60
2023-01-18T05:24:24.585Z,15.40
2023-01-18T05:39:26.930Z,14.67
2023-01-18T05:54:29.253Z,13.63
2023-01-18T06:09:31.740Z,13.37
2023-01-18T06:24:34.169Z,11.03
2023-01-18T06:39:36.503Z,11.43
2023-01-18T06:54:39.058Z,11.53
2023-01-18T07:09:41.618Z,12.43
2023-01-18T07:24:44.037Z,13.87
2023-01-18T07:39:46.583Z,12.53
2023-01-18T07:54:48.963Z,12.43
2023-01-18T08:09:51.743Z,14.63
2023-01-18T08:24:54.268Z,14.20
2023-01-18T08:39:56.581Z,14.50
2023-01-18T08:54:59.000Z,18.33
2023-01-18T09:10:01.392Z,14.97
2023-01-18T09:25:05.727Z,12.73
2023-01-18T09:40:18.704Z,12.17
2023-01-18T09:55:54.383Z,13.47
2023-01-18T10:11:09.728Z,13.20
2023-01-18T10:26:19.318Z,14.20
2023-01-18T10:41:27.670Z,13.87
2023-01-18T10:56:30.214Z,13.87
2023-01-18T11:12:05.257Z,10.33
2023-01-18T11:27:21.252Z,11.17
2023-01-18T11:42:35.018Z,11.13
2023-01-18T11:57:37.755Z,9.97
2023-01-18T12:13:03.326Z,10.27
2023-01-18T12:28:41.472Z,8.47
2023-01-18T12:43:53.106Z,7.13
2023-01-18T12:59:06.566Z,8.03
2023-01-18T13:14:13.426Z,7.17
2023-01-18T13:29:29.103Z,7.93
2023-01-18T13:44:43.609Z,8.17
2023-01-18T13:59:49.515Z,8.13
2023-01-18T14:14:59.007Z,8.27
2023-01-18T14:30:13.440Z,8.70
2023-01-18T14:45:29.309Z,8.30
2023-01-18T15:00:31.801Z,6.00
2023-01-18T15:15:43.998Z,3.93
2023-01-18T15:30:53.907Z,3.43
2023-01-18T15:45:58.183Z,3.83
2023-01-18T16:01:04.061Z,4.87
2023-01-18T16:16:15.444Z,7.37
2023-01-18T16:31:22.787Z,9.23
2023-01-18T16:46:25.463Z,12.57
2023-01-18T17:01:29.748Z,10.57
2023-01-18T17:16:35.137Z,10.43
2023-01-18T17:31:51.373Z,7.43
2023-01-18T17:46:54.851Z,7.50
2023-01-18T18:01:57.449Z,8.03
2023-01-18T18:17:02.026Z,6.30
2023-01-18T18:32:07.665Z,5.97
2023-01-18T18:47:10.084Z,5.67
2023-01-18T19:02:15.304Z,6.07
2023-01-18T19:17:28.981Z,6.23
2023-01-18T19:32:32.018Z,6.97
2023-01-18T19:47:34.462Z,6.93
2023-01-18T20:02:41.232Z,7.43
2023-01-18T20:17:43.894Z,7.13
2023-01-18T20:32:46.299Z,7.90
2023-01-18T20:47:48.786Z,7.17
2023-01-18T21:02:51.489Z,8.27
2023-01-18T21:17:54.119Z,7.17
2023-01-18T21:32:56.563Z,7.40
2023-01-18T21:48:00.933Z,7.63
2023-01-18T22:03:03.822Z,8.37
2023-01-18T22:18:06.624Z,7.73
2023-01-18T22:33:09.285Z,8.17
2023-01-18T22:48:11.640Z,7.90
2023-01-18T23:03:15.392Z,8.40
2023-01-18T23:18:18.515Z,7.87
2023-01-18T23:33:21.738Z,9.27
2023-01-18T23:48:43.089Z,8.13
